Time;durP1;ratioP1;P1;durP2;ratioP2;P2;SDS_P1;SDS_P2;PMS_P1;PMS_P2;Temp;Humidity;BMP_temperature;BMP_pressure;BME280_temperature;BME280_humidity;BME280_pressure;Samples;Min_cycle;Max_cycle;Signal;HPM_P1;HPM_P2
2022/04/03 00:01:50;;;;;;;14.55;7.97;;;;;;;;;;4960465;29;20055;-85
2022/04/03 00:04:36;;;;;;;9.27;6.75;;;;;;;;;;4955409;29;20047;-86
2022/04/03 00:07:21;;;;;;;10.25;6.93;;;;;;;;;;4960748;29;20047;-84
2022/04/03 00:10:07;;;;;;;9.00;4.45;;;;;;;;;;4960642;29;20055;-83
2022/04/03 00:12:52;;;;;;;9.27;5.50;;;;;;;;;;4955661;29;20452;-85
2022/04/03 00:15:41;;;;;;;19.15;10.82;;;;;;;;;;4953886;29;20043;-84
2022/04/03 00:18:26;;;;;;;8.25;4.80;;;;;;;;;;4961192;28;20047;-86
2022/04/03 00:21:13;;;;;;;6.47;4.70;;;;;;;;;;4959519;29;20488;-83
2022/04/03 00:23:58;;;;;;;9.75;6.43;;;;;;;;;;4958589;29;20404;-86
2022/04/03 00:26:44;;;;;;;8.85;6.45;;;;;;;;;;4965253;28;20054;-83
2022/04/03 00:29:29;;;;;;;10.40;7.97;;;;;;;;;;4958763;29;20055;-84
2022/04/03 00:32:15;;;;;;;10.25;7.40;;;;;;;;;;4964443;28;20496;-84
2022/04/03 00:35:00;;;;;;;12.60;7.25;;;;;;;;;;4958934;29;20047;-85
2022/04/03 00:37:45;;;;;;;15.18;8.38;;;;;;;;;;4963876;28;20051;-83
2022/04/03 00:40:30;;;;;;;12.13;8.18;;;;;;;;;;4963816;28;20051;-84
2022/04/03 00:43:15;;;;;;;11.60;7.53;;;;;;;;;;4957741;29;20051;-84
2022/04/03 00:46:03;;;;;;;8.07;5.45;;;;;;;;;;4964969;28;20055;-84
2022/04/03 00:48:49;;;;;;;7.40;5.13;;;;;;;;;;4958442;29;20047;-84
2022/04/03 00:51:35;;;;;;;15.10;7.53;;;;;;;;;;4964813;28;20039;-83
2022/04/03 00:54:21;;;;;;;10.77;7.78;;;;;;;;;;4958273;28;20051;-86
2022/04/03 00:57:07;;;;;;;29.25;15.38;;;;;;;;;;4958682;29;20047;-84
2022/04/03 00:59:54;;;;;;;3.40;2.85;;;;;;;;;;4963358;28;20480;-83
2022/04/03 01:02:41;;;;;;;9.68;6.30;;;;;;;;;;4963569;28;20046;-86
2022/04/03 01:05:26;;;;;;;4.93;3.20;;;;;;;;;;4957619;29;20039;-85
2022/04/03 01:08:12;;;;;;;9.77;6.90;;;;;;;;;;4963524;28;20055;-85
2022/04/03 01:10:57;;;;;;;8.20;6.30;;;;;;;;;;4958173;29;20504;-83
2022/04/03 01:13:47;;;;;;;8.00;5.60;;;;;;;;;;4963238;28;20051;-87
2022/04/03 01:16:34;;;;;;;5.57;4.93;;;;;;;;;;4963223;28;20484;-85
2022/04/03 01:19:21;;;;;;;10.32;5.72;;;;;;;;;;4964113;28;20051;-85
2022/04/03 01:22:11;;;;;;;10.45;6.05;;;;;;;;;;4963493;28;20404;-84
2022/04/03 01:24:58;;;;;;;9.88;5.72;;;;;;;;;;4965059;28;20055;-85
2022/04/03 01:27:43;;;;;;;8.75;6.25;;;;;;;;;;4957808;29;20488;-84
2022/04/03 01:30:29;;;;;;;7.95;6.38;;;;;;;;;;4962547;28;20043;-85
2022/04/03 01:33:16;;;;;;;8.65;6.43;;;;;;;;;;4962893;28;20051;-86
2022/04/03 01:36:02;;;;;;;9.43;6.38;;;;;;;;;;4963054;28;20051;-85
2022/04/03 01:38:47;;;;;;;7.80;5.70;;;;;;;;;;4956646;29;20043;-85
2022/04/03 01:41:32;;;;;;;8.63;5.80;;;;;;;;;;4957342;29;20040;-85
2022/04/03 01:44:20;;;;;;;10.30;6.70;;;;;;;;;;4957155;29;20051;-84
2022/04/03 01:47:06;;;;;;;11.27;5.82;;;;;;;;;;4963303;28;20051;-86
2022/04/03 01:49:51;;;;;;;9.82;6.35;;;;;;;;;;4979240;28;20051;-85
2022/04/03 01:52:37;;;;;;;7.90;6.15;;;;;;;;;;4962684;28;20051;-84
2022/04/03 01:55:24;;;;;;;8.15;5.60;;;;;;;;;;4962557;28;20047;-85
2022/04/03 01:58:09;;;;;;;9.30;6.43;;;;;;;;;;4962670;28;20051;-84
2022/04/03 02:00:55;;;;;;;10.30;6.68;;;;;;;;;;4957098;29;20047;-84
2022/04/03 02:03:40;;;;;;;8.63;6.47;;;;;;;;;;4957490;29;20392;-85
2022/04/03 02:06:27;;;;;;;9.13;6.25;;;;;;;;;;4962367;28;20043;-84
2022/04/03 02:09:20;;;;;;;6.65;5.53;;;;;;;;;;4962330;28;20051;-86
2022/04/03 02:12:06;;;;;;;5.20;3.97;;;;;;;;;;4955728;29;20043;-85
2022/04/03 02:14:52;;;;;;;4.97;3.45;;;;;;;;;;4963133;28;20050;-86
2022/04/03 02:17:40;;;;;;;4.90;4.10;;;;;;;;;;4956983;29;20480;-84
2022/04/03 02:20:31;;;;;;;5.65;4.05;;;;;;;;;;4956357;29;20043;-86
2022/04/03 02:23:19;;;;;;;4.85;3.80;;;;;;;;;;4962015;28;20051;-87
2022/04/03 02:26:10;;;;;;;5.35;4.40;;;;;;;;;;4962162;28;20496;-84
2022/04/03 02:28:57;;;;;;;6.68;5.70;;;;;;;;;;4955367;29;20047;-84
2022/04/03 02:31:59;;;;;;;2.83;2.58;;;;;;;;;;4962112;28;20051;-87
2022/04/03 02:34:51;;;;;;;6.20;4.80;;;;;;;;;;4962787;28;20047;-86
2022/04/03 02:37:41;;;;;;;4.53;3.90;;;;;;;;;;4961743;28;20051;-84
2022/04/03 02:40:26;;;;;;;4.57;3.25;;;;;;;;;;4962049;28;20043;-85
2022/04/03 02:43:11;;;;;;;5.05;4.28;;;;;;;;;;4960808;28;20043;-85
2022/04/03 02:46:18;;;;;;;5.20;3.88;;;;;;;;;;4955954;29;20048;-84
2022/04/03 02:49:14;;;;;;;4.72;3.45;;;;;;;;;;4961830;28;20047;-84
2022/04/03 02:52:27;;;;;;;;;;;;;;;;;;;;;
2022/04/03 02:55:27;;;;;;;7.28;5.30;;;;;;;;;;4961450;28;20047;-86
2022/04/03 02:58:12;;;;;;;8.00;6.10;;;;;;;;;;4955004;29;20055;-84
2022/04/03 03:01:34;;;;;;;10.32;6.95;;;;;;;;;;4961269;28;20040;-86
2022/04/03 03:04:19;;;;;;;11.27;6.43;;;;;;;;;;4955766;29;20472;-85
2022/04/03 03:07:18;;;;;;;10.13;5.88;;;;;;;;;;4955304;29;20516;-84
2022/04/03 03:10:24;;;;;;;12.27;8.23;;;;;;;;;;4974952;28;20054;-85
2022/04/03 03:17:13;;;;;;;11.18;7.65;;;;;;;;;;4956012;29;20051;-84
2022/04/03 03:20:31;;;;;;;10.20;6.60;;;;;;;;;;4961837;28;20055;-85
2022/04/03 03:23:33;;;;;;;9.25;6.00;;;;;;;;;;4955414;29;20051;-85
2022/04/03 03:26:29;;;;;;;8.38;6.47;;;;;;;;;;4947387;28;20488;-85
2022/04/03 03:29:53;;;;;;;9.70;6.93;;;;;;;;;;4974448;28;20046;-86
2022/04/03 03:33:13;;;;;;;10.57;6.95;;;;;;;;;;4954664;29;20039;-85
2022/04/03 03:36:27;;;;;;;10.50;7.18;;;;;;;;;;4947803;28;20483;-86
2022/04/03 03:39:30;;;;;;;10.23;5.65;;;;;;;;;;4974301;28;20055;-84
2022/04/03 03:42:16;;;;;;;9.73;6.88;;;;;;;;;;4961399;28;20047;-84
2022/04/03 03:45:04;;;;;;;8.68;5.90;;;;;;;;;;4947366;28;20051;-85
2022/04/03 03:47:59;;;;;;;7.50;6.10;;;;;;;;;;4960654;29;20047;-85
2022/04/03 03:50:50;;;;;;;7.43;5.57;;;;;;;;;;4960818;28;20047;-84
2022/04/03 03:53:36;;;;;;;9.45;6.75;;;;;;;;;;4958355;28;20051;-85
2022/04/03 03:56:21;;;;;;;8.93;5.50;;;;;;;;;;4964430;28;20046;-85
2022/04/03 03:59:08;;;;;;;8.05;5.97;;;;;;;;;;4959283;29;20044;-85
2022/04/03 04:01:54;;;;;;;7.55;6.22;;;;;;;;;;4963397;28;20436;-85
2022/04/03 04:04:39;;;;;;;7.65;6.07;;;;;;;;;;4959264;29;20491;-85
2022/04/03 04:07:25;;;;;;;9.30;6.88;;;;;;;;;;4944608;29;20040;-84
2022/04/03 04:10:15;;;;;;;10.23;6.45;;;;;;;;;;4959507;29;20055;-85
2022/04/03 04:13:10;;;;;;;7.63;5.70;;;;;;;;;;4957402;29;20035;-86
2022/04/03 04:16:05;;;;;;;10.18;7.95;;;;;;;;;;4962939;28;20039;-85
2022/04/03 04:18:50;;;;;;;9.30;6.85;;;;;;;;;;4967332;28;20491;-86
2022/04/03 04:21:35;;;;;;;10.23;7.03;;;;;;;;;;4976301;28;20047;-85
2022/04/03 04:24:23;;;;;;;9.73;6.85;;;;;;;;;;4958677;29;20047;-85
2022/04/03 04:27:11;;;;;;;9.90;7.57;;;;;;;;;;4955042;28;20035;-87
2022/04/03 04:29:59;;;;;;;8.90;6.78;;;;;;;;;;4964405;28;20059;-86
2022/04/03 04:32:45;;;;;;;10.50;6.90;;;;;;;;;;4944222;29;20047;-84
2022/04/03 04:35:37;;;;;;;12.73;8.63;;;;;;;;;;4944017;29;20050;-85
2022/04/03 04:38:27;;;;;;;10.63;7.45;;;;;;;;;;4950948;28;20043;-85
2022/04/03 04:41:12;;;;;;;7.43;4.88;;;;;;;;;;4963753;28;20043;-87
2022/04/03 04:43:57;;;;;;;13.00;9.05;;;;;;;;;;4965116;28;20044;-84
2022/04/03 04:46:43;;;;;;;9.25;6.07;;;;;;;;;;4954796;28;20055;-87
2022/04/03 04:49:28;;;;;;;13.20;9.25;;;;;;;;;;4957125;29;20055;-86
2022/04/03 04:52:14;;;;;;;12.02;8.13;;;;;;;;;;4950414;28;20043;-84
2022/04/03 04:55:00;;;;;;;12.98;8.63;;;;;;;;;;4963628;28;20046;-87
2022/04/03 04:57:56;;;;;;;13.52;9.40;;;;;;;;;;4964813;28;20042;-86
2022/04/03 05:00:42;;;;;;;16.05;10.18;;;;;;;;;;4963883;28;20400;-84
2022/04/03 05:03:27;;;;;;;12.68;8.55;;;;;;;;;;4964019;28;20047;-86
2022/04/03 05:06:15;;;;;;;14.88;9.07;;;;;;;;;;4957398;28;20051;-84
2022/04/03 05:09:02;;;;;;;11.15;7.70;;;;;;;;;;4964700;28;20051;-86
2022/04/03 05:11:48;;;;;;;15.95;10.48;;;;;;;;;;4968620;28;20059;-85
2022/04/03 05:14:33;;;;;;;14.35;8.15;;;;;;;;;;4965095;28;20047;-87
2022/04/03 05:17:19;;;;;;;19.35;13.43;;;;;;;;;;4965143;28;20051;-86
2022/04/03 05:20:05;;;;;;;15.68;11.07;;;;;;;;;;4968018;28;20468;-85
2022/04/03 05:22:51;;;;;;;8.48;6.63;;;;;;;;;;4946405;29;20047;-84
2022/04/03 05:25:37;;;;;;;21.92;11.77;;;;;;;;;;4957905;29;20039;-85
2022/04/03 05:28:22;;;;;;;17.75;10.93;;;;;;;;;;4965134;28;20047;-85
2022/04/03 05:31:07;;;;;;;16.50;10.85;;;;;;;;;;4950568;28;20055;-84
2022/04/03 05:33:56;;;;;;;8.02;4.72;;;;;;;;;;4968284;28;20055;-86
2022/04/03 05:36:41;;;;;;;17.35;11.20;;;;;;;;;;4961060;29;20488;-86
2022/04/03 05:39:26;;;;;;;25.58;13.82;;;;;;;;;;4956043;28;20055;-86
2022/04/03 05:42:12;;;;;;;32.60;16.10;;;;;;;;;;4955464;28;20039;-86
2022/04/03 05:44:57;;;;;;;31.23;16.90;;;;;;;;;;4968319;28;20051;-85
2022/04/03 05:47:43;;;;;;;24.77;14.45;;;;;;;;;;4954654;28;20059;-87
2022/04/03 05:50:29;;;;;;;20.13;12.35;;;;;;;;;;4960114;29;20084;-86
2022/04/03 05:53:14;;;;;;;18.40;12.20;;;;;;;;;;4950330;28;20047;-86
2022/04/03 05:55:59;;;;;;;19.70;10.52;;;;;;;;;;4960296;29;20065;-85
2022/04/03 05:58:48;;;;;;;21.27;11.05;;;;;;;;;;4959278;29;20392;-85
2022/04/03 06:01:41;;;;;;;118.55;38.13;;;;;;;;;;4964430;28;20039;-85
2022/04/03 06:04:27;;;;;;;32.88;16.20;;;;;;;;;;4959499;29;20055;-86
2022/04/03 06:07:13;;;;;;;37.10;19.42;;;;;;;;;;4965698;28;20063;-87
2022/04/03 06:10:01;;;;;;;21.60;13.38;;;;;;;;;;4957877;29;20047;-86
2022/04/03 06:12:58;;;;;;;16.95;10.30;;;;;;;;;;4959339;29;20043;-86
2022/04/03 06:15:48;;;;;;;9.50;6.05;;;;;;;;;;4962385;28;20043;-87
2022/04/03 06:18:34;;;;;;;19.02;10.95;;;;;;;;;;4962866;28;20047;-88
2022/04/03 06:21:20;;;;;;;23.70;13.80;;;;;;;;;;4956328;29;20055;-86
2022/04/03 06:24:05;;;;;;;11.43;7.63;;;;;;;;;;4956600;29;20051;-84
2022/04/03 06:26:51;;;;;;;24.02;14.35;;;;;;;;;;4949145;29;20055;-85
2022/04/03 06:29:36;;;;;;;19.08;12.52;;;;;;;;;;4956387;29;20047;-85
2022/04/03 06:32:22;;;;;;;24.27;15.23;;;;;;;;;;4956607;29;20046;-84
2022/04/03 06:35:08;;;;;;;17.05;11.88;;;;;;;;;;4956142;29;20047;-83
2022/04/03 06:37:53;;;;;;;24.52;16.98;;;;;;;;;;4963011;28;20051;-83
2022/04/03 06:40:48;;;;;;;19.27;12.35;;;;;;;;;;4956252;29;20051;-82
2022/04/03 06:43:35;;;;;;;17.35;11.43;;;;;;;;;;4956294;29;20039;-81
2022/04/03 06:46:20;;;;;;;50.03;28.67;;;;;;;;;;4956433;29;20052;-85
2022/04/03 06:49:05;;;;;;;21.88;14.70;;;;;;;;;;4955951;29;20043;-84
2022/04/03 06:51:51;;;;;;;60.15;28.92;;;;;;;;;;4955650;29;20051;-84
2022/04/03 06:54:37;;;;;;;31.48;18.70;;;;;;;;;;4936380;29;20059;-86
2022/04/03 06:57:22;;;;;;;686.78;351.35;;;;;;;;;;4947334;29;20047;-84
2022/04/03 07:00:09;;;;;;;173.18;111.80;;;;;;;;;;4954867;29;20051;-84
2022/04/03 07:02:55;;;;;;;78.10;51.45;;;;;;;;;;4959289;28;20042;-84
2022/04/03 07:05:40;;;;;;;20.52;12.80;;;;;;;;;;4944101;29;20047;-85
2022/04/03 07:08:27;;;;;;;16.25;9.35;;;;;;;;;;4961968;29;20047;-85
2022/04/03 07:11:13;;;;;;;24.15;14.10;;;;;;;;;;4961538;29;20047;-85
2022/04/03 07:13:59;;;;;;;20.65;12.98;;;;;;;;;;4968246;28;20043;-84
2022/04/03 07:16:44;;;;;;;21.60;15.38;;;;;;;;;;4961607;29;20055;-85
2022/04/03 07:19:30;;;;;;;19.02;11.63;;;;;;;;;;4967493;28;20054;-86
2022/04/03 07:22:15;;;;;;;29.77;16.25;;;;;;;;;;4946754;29;20043;-84
2022/04/03 07:25:01;;;;;;;16.13;9.25;;;;;;;;;;4961201;29;20044;-84
2022/04/03 07:27:47;;;;;;;18.35;12.02;;;;;;;;;;4959022;28;20051;-86
2022/04/03 07:30:32;;;;;;;35.75;21.23;;;;;;;;;;4954686;29;20412;-85
2022/04/03 07:33:21;;;;;;;20.73;13.93;;;;;;;;;;4961726;28;20055;-85
2022/04/03 07:36:06;;;;;;;18.90;13.68;;;;;;;;;;4955304;29;20492;-85
2022/04/03 07:38:52;;;;;;;19.63;13.00;;;;;;;;;;4954277;29;20043;-86
2022/04/03 07:41:38;;;;;;;16.65;11.45;;;;;;;;;;4954603;29;20035;-84
2022/04/03 07:44:23;;;;;;;18.33;12.95;;;;;;;;;;4955171;29;20059;-86
2022/04/03 07:47:08;;;;;;;17.90;12.35;;;;;;;;;;4961194;28;20047;-83
2022/04/03 07:49:54;;;;;;;20.88;13.50;;;;;;;;;;4955915;29;20063;-85
2022/04/03 07:52:41;;;;;;;18.58;12.65;;;;;;;;;;4955304;28;20496;-85
2022/04/03 07:55:26;;;;;;;22.85;13.85;;;;;;;;;;4956271;29;20055;-84
2022/04/03 07:58:12;;;;;;;21.35;13.75;;;;;;;;;;4954221;29;20043;-85
2022/04/03 08:00:58;;;;;;;122.22;67.60;;;;;;;;;;4954508;29;20039;-83
2022/04/03 08:03:43;;;;;;;18.23;12.93;;;;;;;;;;4958365;28;20043;-85
2022/04/03 08:06:29;;;;;;;15.48;10.65;;;;;;;;;;4953146;29;20396;-85
2022/04/03 08:09:14;;;;;;;15.65;11.35;;;;;;;;;;4961468;28;20051;-85
2022/04/03 08:12:00;;;;;;;23.42;12.38;;;;;;;;;;4954704;29;20421;-85
2022/04/03 08:14:47;;;;;;;22.10;12.98;;;;;;;;;;4955130;29;20051;-80
2022/04/03 08:17:34;;;;;;;21.30;13.27;;;;;;;;;;4955382;29;20043;-81
2022/04/03 08:20:20;;;;;;;19.85;13.25;;;;;;;;;;4960945;29;20503;-83
2022/04/03 08:23:06;;;;;;;17.92;12.00;;;;;;;;;;4961995;28;20051;-81
2022/04/03 08:25:51;;;;;;;22.58;15.43;;;;;;;;;;4961508;28;20071;-81
2022/04/03 08:28:37;;;;;;;25.42;16.00;;;;;;;;;;4961579;29;20043;-81
2022/04/03 08:31:23;;;;;;;17.45;12.07;;;;;;;;;;4954929;29;20050;-80
2022/04/03 08:34:08;;;;;;;26.48;14.55;;;;;;;;;;4951748;29;20488;-82
2022/04/03 08:36:54;;;;;;;20.45;13.68;;;;;;;;;;4951732;29;20412;-83
2022/04/03 08:39:41;;;;;;;17.33;11.45;;;;;;;;;;4935808;29;20051;-83
2022/04/03 08:42:27;;;;;;;19.15;12.18;;;;;;;;;;4938250;29;20036;-82
2022/04/03 08:45:12;;;;;;;21.98;15.27;;;;;;;;;;4956981;29;20047;-84
2022/04/03 08:47:59;;;;;;;20.65;15.27;;;;;;;;;;4960841;28;20039;-83
2022/04/03 08:50:50;;;;;;;22.73;14.70;;;;;;;;;;4964380;28;20059;-84
2022/04/03 08:53:38;;;;;;;20.25;13.07;;;;;;;;;;4962386;28;20059;-86
2022/04/03 08:56:23;;;;;;;19.88;14.00;;;;;;;;;;4958559;29;20043;-83
2022/04/03 08:59:09;;;;;;;14.73;10.90;;;;;;;;;;4964640;28;20043;-82
2022/04/03 09:01:55;;;;;;;19.88;13.75;;;;;;;;;;4964676;28;20051;-82
2022/04/03 09:04:40;;;;;;;32.78;13.13;;;;;;;;;;4962756;28;20583;-84
2022/04/03 09:07:26;;;;;;;16.45;12.32;;;;;;;;;;4963910;28;20472;-82
2022/04/03 09:10:14;;;;;;;16.27;11.07;;;;;;;;;;4958238;29;20400;-83
2022/04/03 09:12:59;;;;;;;21.65;11.95;;;;;;;;;;4963623;28;20055;-82
2022/04/03 09:15:45;;;;;;;15.85;12.25;;;;;;;;;;4964345;28;20047;-81
2022/04/03 09:18:51;;;;;;;17.65;12.27;;;;;;;;;;4961895;28;20051;-82
2022/04/03 09:21:37;;;;;;;21.05;13.77;;;;;;;;;;4964713;28;20043;-81
2022/04/03 09:24:22;;;;;;;20.20;13.05;;;;;;;;;;4957903;29;20047;-83
2022/04/03 09:27:08;;;;;;;16.70;12.30;;;;;;;;;;4949489;28;20055;-83
2022/04/03 09:30:05;;;;;;;15.35;10.40;;;;;;;;;;4964414;28;20051;-80
2022/04/03 09:32:55;;;;;;;16.90;10.57;;;;;;;;;;4957706;29;20047;-81
2022/04/03 09:35:57;;;;;;;12.93;8.13;;;;;;;;;;4964253;28;20051;-82
2022/04/03 09:38:47;;;;;;;19.27;12.32;;;;;;;;;;4957873;29;20039;-84
2022/04/03 09:41:55;;;;;;;19.40;12.90;;;;;;;;;;4963847;28;20039;-84
2022/04/03 09:44:44;;;;;;;15.07;10.93;;;;;;;;;;4944940;29;20039;-83
2022/04/03 09:47:32;;;;;;;14.82;10.43;;;;;;;;;;4937830;29;20055;-83
2022/04/03 09:50:17;;;;;;;20.17;13.73;;;;;;;;;;4944611;29;20047;-82
2022/04/03 09:53:03;;;;;;;18.10;12.40;;;;;;;;;;4943167;29;20048;-81
2022/04/03 09:55:50;;;;;;;23.60;12.10;;;;;;;;;;4949366;28;20055;-82
2022/04/03 09:58:59;;;;;;;19.95;7.80;;;;;;;;;;4963215;28;20408;-83
2022/04/03 10:01:44;;;;;;;21.52;11.93;;;;;;;;;;4947221;28;20043;-81
2022/04/03 10:04:33;;;;;;;15.82;10.63;;;;;;;;;;4960689;28;20047;-81
2022/04/03 10:07:20;;;;;;;13.02;8.65;;;;;;;;;;4961401;28;20071;-83
2022/04/03 10:10:06;;;;;;;16.38;10.70;;;;;;;;;;4955169;29;20397;-83
2022/04/03 10:12:54;;;;;;;14.05;9.55;;;;;;;;;;4956388;29;20051;-81
2022/04/03 10:15:39;;;;;;;18.15;9.50;;;;;;;;;;4962033;28;20488;-82
2022/04/03 10:18:25;;;;;;;12.73;8.68;;;;;;;;;;4962912;28;20043;-82
2022/04/03 10:21:23;;;;;;;11.05;7.97;;;;;;;;;;4963009;28;20051;-84
2022/04/03 10:24:18;;;;;;;17.30;10.57;;;;;;;;;;4957722;29;20488;-84
2022/04/03 10:27:18;;;;;;;22.80;14.10;;;;;;;;;;4961185;29;20472;-82
2022/04/03 10:30:06;;;;;;;17.67;9.07;;;;;;;;;;4965121;28;20050;-82
2022/04/03 10:32:59;;;;;;;8.07;6.38;;;;;;;;;;4962113;28;20055;-83
2022/04/03 10:35:59;;;;;;;20.38;13.57;;;;;;;;;;4957581;29;20039;-81
2022/04/03 10:38:56;;;;;;;19.10;10.85;;;;;;;;;;4962818;28;20047;-82
2022/04/03 10:41:43;;;;;;;23.92;11.73;;;;;;;;;;4961479;28;20051;-83
2022/04/03 10:44:28;;;;;;;11.82;6.68;;;;;;;;;;4953856;29;20099;-82
2022/04/03 10:47:18;;;;;;;15.45;10.52;;;;;;;;;;4953802;29;20051;-83
2022/04/03 10:50:05;;;;;;;15.35;9.27;;;;;;;;;;4955928;29;20483;-84
2022/04/03 10:52:51;;;;;;;10.90;8.05;;;;;;;;;;4961065;28;20051;-84
2022/04/03 10:55:37;;;;;;;9.15;6.38;;;;;;;;;;4960204;28;20051;-83
2022/04/03 10:58:22;;;;;;;8.85;6.57;;;;;;;;;;4955543;29;20051;-81
2022/04/03 11:01:11;;;;;;;6.72;5.38;;;;;;;;;;4956424;29;20043;-82
2022/04/03 11:04:16;;;;;;;15.18;8.82;;;;;;;;;;4960249;28;20059;-80
2022/04/03 11:07:14;;;;;;;11.63;6.88;;;;;;;;;;4961055;28;20047;-81
2022/04/03 11:09:59;;;;;;;24.23;13.90;;;;;;;;;;4956233;28;20039;-81
2022/04/03 11:12:55;;;;;;;18.67;12.45;;;;;;;;;;4961215;28;20396;-81
2022/04/03 11:15:53;;;;;;;20.58;12.85;;;;;;;;;;4962864;28;20043;-81
2022/04/03 11:18:49;;;;;;;20.27;13.05;;;;;;;;;;4953031;29;20047;-81
2022/04/03 11:21:36;;;;;;;24.88;13.88;;;;;;;;;;4954420;28;20047;-80
2022/04/03 11:24:24;;;;;;;31.42;18.10;;;;;;;;;;4961965;28;20051;-82
2022/04/03 11:27:10;;;;;;;27.30;15.20;;;;;;;;;;4955953;28;20043;-81
2022/04/03 11:29:55;;;;;;;28.20;16.42;;;;;;;;;;4955018;29;20043;-83
2022/04/03 11:32:41;;;;;;;28.85;16.45;;;;;;;;;;4960217;28;20051;-83
2022/04/03 11:35:35;;;;;;;27.58;15.68;;;;;;;;;;4959557;28;20468;-80
2022/04/03 11:38:21;;;;;;;21.42;12.30;;;;;;;;;;4961474;28;20463;-80
2022/04/03 11:41:11;;;;;;;22.63;13.77;;;;;;;;;;4955215;29;20426;-83
2022/04/03 11:44:08;;;;;;;22.05;14.23;;;;;;;;;;4960855;28;20055;-82
2022/04/03 11:46:55;;;;;;;26.55;17.92;;;;;;;;;;4961569;28;20411;-80
2022/04/03 11:49:41;;;;;;;21.90;14.07;;;;;;;;;;4961251;28;20432;-82
2022/04/03 11:52:26;;;;;;;25.98;16.42;;;;;;;;;;4960636;28;20055;-81
2022/04/03 11:55:11;;;;;;;28.20;16.63;;;;;;;;;;4961793;28;20055;-82
2022/04/03 11:57:58;;;;;;;30.50;17.80;;;;;;;;;;4955199;29;20396;-81
2022/04/03 12:00:47;;;;;;;19.77;10.30;;;;;;;;;;4961275;28;20508;-81
2022/04/03 12:03:35;;;;;;;29.50;15.25;;;;;;;;;;4942221;29;20051;-80
2022/04/03 12:06:20;;;;;;;25.02;14.07;;;;;;;;;;4958841;28;20042;-80
2022/04/03 12:09:10;;;;;;;32.20;16.52;;;;;;;;;;4960722;29;20064;-83
2022/04/03 12:11:58;;;;;;;30.15;11.93;;;;;;;;;;4961692;28;20039;-80
2022/04/03 12:14:45;;;;;;;39.40;21.45;;;;;;;;;;4963300;28;20480;-81
2022/04/03 12:17:38;;;;;;;18.60;11.73;;;;;;;;;;4967098;28;20063;-81
2022/04/03 12:20:25;;;;;;;28.05;14.90;;;;;;;;;;4967373;28;20051;-81
2022/04/03 12:23:10;;;;;;;16.23;10.25;;;;;;;;;;4965049;28;20047;-83
2022/04/03 12:25:56;;;;;;;16.42;10.05;;;;;;;;;;4964688;28;20523;-82
2022/04/03 12:28:41;;;;;;;18.98;11.88;;;;;;;;;;4959000;28;20047;-83
2022/04/03 12:31:33;;;;;;;32.97;18.70;;;;;;;;;;4964023;28;20492;-82
2022/04/03 12:34:18;;;;;;;14.70;10.07;;;;;;;;;;4965182;28;20039;-82
2022/04/03 12:37:05;;;;;;;35.85;16.13;;;;;;;;;;4964520;28;20043;-81
2022/04/03 12:39:51;;;;;;;23.02;12.25;;;;;;;;;;4948599;29;20051;-81
2022/04/03 12:42:41;;;;;;;43.05;22.77;;;;;;;;;;4964697;28;20400;-81
2022/04/03 12:45:27;;;;;;;31.25;17.02;;;;;;;;;;4964330;28;20059;-82
2022/04/03 12:48:15;;;;;;;38.42;20.25;;;;;;;;;;4963902;28;20051;-83
2022/04/03 12:51:08;;;;;;;32.13;17.55;;;;;;;;;;4964905;28;20487;-86
2022/04/03 12:53:57;;;;;;;28.48;16.13;;;;;;;;;;4961445;28;20043;-82
2022/04/03 12:59:53;;;;;;;40.30;22.90;;;;;;;;;;4965301;28;20051;-82
2022/04/03 13:02:39;;;;;;;21.23;13.15;;;;;;;;;;4958293;29;20043;-82
2022/04/03 13:05:32;;;;;;;37.63;20.88;;;;;;;;;;4965239;28;20408;-82
2022/04/03 13:08:17;;;;;;;15.82;9.95;;;;;;;;;;4964768;28;20043;-81
2022/04/03 13:11:03;;;;;;;39.03;20.45;;;;;;;;;;4963423;28;20035;-81
2022/04/03 13:13:48;;;;;;;19.92;10.68;;;;;;;;;;4958181;29;20496;-82
2022/04/03 13:16:35;;;;;;;23.58;13.23;;;;;;;;;;4964483;28;20058;-80
2022/04/03 13:19:22;;;;;;;24.90;13.32;;;;;;;;;;4950226;28;20046;-85
2022/04/03 13:22:07;;;;;;;15.68;10.55;;;;;;;;;;4962028;28;20047;-83
2022/04/03 13:24:53;;;;;;;23.38;14.50;;;;;;;;;;4957261;29;20048;-80
2022/04/03 13:27:39;;;;;;;66.60;22.38;;;;;;;;;;4964047;28;20055;-83
2022/04/03 13:30:25;;;;;;;23.10;11.07;;;;;;;;;;4963614;28;20051;-80
2022/04/03 13:33:11;;;;;;;23.40;14.35;;;;;;;;;;4965000;28;20051;-80
2022/04/03 13:35:56;;;;;;;17.90;11.48;;;;;;;;;;4962706;28;20047;-80
2022/04/03 13:38:42;;;;;;;14.05;8.55;;;;;;;;;;4954948;29;20476;-81
2022/04/03 13:41:28;;;;;;;21.67;11.25;;;;;;;;;;4963877;28;20047;-80
2022/04/03 13:44:14;;;;;;;10.43;7.40;;;;;;;;;;4956859;29;20040;-81
2022/04/03 13:47:01;;;;;;;20.27;12.30;;;;;;;;;;4955683;29;20036;-81
2022/04/03 13:49:47;;;;;;;24.17;13.23;;;;;;;;;;4963485;28;20047;-81
2022/04/03 13:52:32;;;;;;;22.83;12.27;;;;;;;;;;4963768;28;20055;-81
2022/04/03 13:55:20;;;;;;;19.48;12.45;;;;;;;;;;4964412;28;20051;-80
2022/04/03 13:58:05;;;;;;;23.10;13.23;;;;;;;;;;4961736;28;20055;-82
2022/04/03 14:00:51;;;;;;;18.42;11.50;;;;;;;;;;4957233;29;20424;-81
2022/04/03 14:03:36;;;;;;;19.73;12.07;;;;;;;;;;4962793;28;20048;-81
2022/04/03 14:06:22;;;;;;;22.95;13.23;;;;;;;;;;4963521;28;20054;-82
2022/04/03 14:09:09;;;;;;;17.20;9.82;;;;;;;;;;4964131;28;20055;-81
2022/04/03 14:11:56;;;;;;;18.17;10.75;;;;;;;;;;4956949;29;20055;-81
2022/04/03 14:14:41;;;;;;;20.42;10.35;;;;;;;;;;4963760;28;20558;-80
2022/04/03 14:17:28;;;;;;;16.17;9.10;;;;;;;;;;4962345;28;20050;-82
2022/04/03 14:20:12;;;;;;;47.60;19.02;;;;;;;;;;4963149;28;20043;-81
2022/04/03 14:22:58;;;;;;;24.67;13.15;;;;;;;;;;4963451;28;20047;-82
2022/04/03 14:25:44;;;;;;;14.25;9.60;;;;;;;;;;4963362;28;20047;-83
2022/04/03 14:28:35;;;;;;;18.05;9.07;;;;;;;;;;4962726;28;20047;-81
2022/04/03 14:31:20;;;;;;;11.25;8.48;;;;;;;;;;4962988;28;20051;-82
2022/04/03 14:34:05;;;;;;;22.75;11.90;;;;;;;;;;4961990;28;20051;-80
2022/04/03 14:36:51;;;;;;;12.70;8.60;;;;;;;;;;4957039;28;20043;-84
2022/04/03 14:39:37;;;;;;;18.13;10.48;;;;;;;;;;4960879;28;20043;-80
2022/04/03 14:42:23;;;;;;;13.02;6.65;;;;;;;;;;4955488;28;20059;-81
2022/04/03 14:45:11;;;;;;;15.95;7.15;;;;;;;;;;4962732;28;20039;-82
2022/04/03 14:47:56;;;;;;;14.55;10.15;;;;;;;;;;4962621;28;20372;-81
2022/04/03 14:50:43;;;;;;;16.08;7.18;;;;;;;;;;4962898;28;20055;-83
2022/04/03 14:53:28;;;;;;;19.23;10.88;;;;;;;;;;4958941;28;20491;-81
2022/04/03 14:56:16;;;;;;;15.32;9.13;;;;;;;;;;4962080;28;20051;-80
2022/04/03 14:59:03;;;;;;;16.73;9.27;;;;;;;;;;4961236;28;20055;-81
2022/04/03 15:01:53;;;;;;;21.25;11.50;;;;;;;;;;4955757;29;20039;-82
2022/04/03 15:04:38;;;;;;;19.15;11.25;;;;;;;;;;4962832;28;20048;-80
2022/04/03 15:07:24;;;;;;;20.13;10.38;;;;;;;;;;4962677;28;20065;-79
2022/04/03 15:10:10;;;;;;;17.40;10.50;;;;;;;;;;4955841;29;20050;-81
2022/04/03 15:12:55;;;;;;;31.05;14.05;;;;;;;;;;4943333;29;20055;-80
2022/04/03 15:15:40;;;;;;;13.07;8.27;;;;;;;;;;4942740;29;20052;-80
2022/04/03 15:18:26;;;;;;;16.58;10.18;;;;;;;;;;4943259;29;20106;-81
2022/04/03 15:21:12;;;;;;;11.60;7.38;;;;;;;;;;4942889;29;20408;-80
2022/04/03 15:24:00;;;;;;;20.90;11.95;;;;;;;;;;4961469;28;20043;-80
2022/04/03 15:26:50;;;;;;;13.45;7.45;;;;;;;;;;4961561;28;20055;-81
2022/04/03 15:29:48;;;;;;;12.80;8.68;;;;;;;;;;4942603;29;20047;-80
2022/04/03 15:32:33;;;;;;;17.15;9.00;;;;;;;;;;4943925;29;20055;-81
2022/04/03 15:35:18;;;;;;;12.75;9.35;;;;;;;;;;4962048;28;20051;-81
2022/04/03 15:38:05;;;;;;;16.33;10.43;;;;;;;;;;4961612;28;20047;-81
2022/04/03 15:40:50;;;;;;;13.75;8.65;;;;;;;;;;4962302;28;20485;-78
2022/04/03 15:43:37;;;;;;;20.83;11.18;;;;;;;;;;4954398;29;20047;-81
2022/04/03 15:46:23;;;;;;;12.23;7.55;;;;;;;;;;4960448;28;20047;-83
2022/04/03 15:49:08;;;;;;;18.60;9.90;;;;;;;;;;4959947;28;20043;-81
2022/04/03 15:51:57;;;;;;;16.67;10.10;;;;;;;;;;4957521;28;20054;-82
2022/04/03 15:54:43;;;;;;;13.48;8.15;;;;;;;;;;4953926;29;20044;-81
2022/04/03 15:57:31;;;;;;;16.13;9.38;;;;;;;;;;4946907;29;20059;-82
2022/04/03 16:00:20;;;;;;;15.52;8.13;;;;;;;;;;4953128;29;20040;-83
2022/04/03 16:03:09;;;;;;;11.32;7.55;;;;;;;;;;4960696;28;20039;-83
2022/04/03 16:05:54;;;;;;;13.02;8.65;;;;;;;;;;4946235;29;20047;-83
2022/04/03 16:08:39;;;;;;;7.95;5.60;;;;;;;;;;4942565;29;20412;-81
2022/04/03 16:11:25;;;;;;;8.20;5.32;;;;;;;;;;4934669;29;20047;-81
2022/04/03 16:14:11;;;;;;;13.05;8.05;;;;;;;;;;4959383;29;20408;-83
2022/04/03 16:16:58;;;;;;;11.02;5.28;;;;;;;;;;4937042;29;20047;-80
2022/04/03 16:19:44;;;;;;;11.68;8.15;;;;;;;;;;4957711;29;20481;-80
2022/04/03 16:22:30;;;;;;;12.85;8.15;;;;;;;;;;4959336;29;20039;-82
2022/04/03 16:25:15;;;;;;;12.18;7.78;;;;;;;;;;4959746;29;20036;-80
2022/04/03 16:28:00;;;;;;;16.05;8.70;;;;;;;;;;4959373;29;20051;-80
2022/04/03 16:30:46;;;;;;;9.07;5.53;;;;;;;;;;4958137;29;20043;-81
2022/04/03 16:33:32;;;;;;;10.15;5.70;;;;;;;;;;4958719;28;20043;-81
2022/04/03 16:36:17;;;;;;;12.32;6.90;;;;;;;;;;4957126;28;20484;-80